createdAt,value
2023-02-19T00:01:51.446Z,1.16
2023-02-19T00:04:36.369Z,1.09
2023-02-19T00:07:21.313Z,1.07
2023-02-19T00:10:06.652Z,0.98
2023-02-19T00:12:52.164Z,0.94
2023-02-19T00:15:37.072Z,0.97
2023-02-19T00:18:22.772Z,0.96
2023-02-19T00:21:07.764Z,0.94
2023-02-19T00:23:55.624Z,0.94
2023-02-19T00:26:42.450Z,0.96
2023-02-19T00:29:27.856Z,0.96
2023-02-19T00:32:12.705Z,0.92
2023-02-19T00:34:57.466Z,0.89
2023-02-19T00:37:42.437Z,0.87
2023-02-19T00:40:28.088Z,0.82
2023-02-19T00:43:12.883Z,0.85
2023-02-19T00:45:57.876Z,0.85
2023-02-19T00:48:42.849Z,0.84
2023-02-19T00:51:30.134Z,0.84
2023-02-19T00:54:15.410Z,0.85
2023-02-19T00:57:00.507Z,0.82
2023-02-19T00:59:45.162Z,0.82
2023-02-19T01:02:30.203Z,0.77
2023-02-19T01:05:14.704Z,0.74
2023-02-19T01:07:59.292Z,0.67
2023-02-19T01:10:44.213Z,0.73
2023-02-19T01:13:29.880Z,0.74
2023-02-19T01:16:18.561Z,0.79
2023-02-19T01:19:03.130Z,0.84
2023-02-19T01:21:47.889Z,0.84
2023-02-19T01:24:32.436Z,0.80
2023-02-19T01:27:17.570Z,0.77
2023-02-19T01:30:03.230Z,0.75
2023-02-19T01:32:48.043Z,0.80
2023-02-19T01:35:33.723Z,0.79
2023-02-19T01:38:18.963Z,0.81
2023-02-19T01:41:06.775Z,0.76
2023-02-19T01:44:10.743Z,0.78
2023-02-19T01:46:58.370Z,0.74
2023-02-19T01:49:54.254Z,0.66
2023-02-19T01:52:39.206Z,0.65
2023-02-19T01:55:24.559Z,0.65
2023-02-19T01:58:10.250Z,0.63
2023-02-19T02:00:56.516Z,0.62
2023-02-19T02:03:46.515Z,0.55
2023-02-19T02:06:37.639Z,0.53
2023-02-19T02:09:49.691Z,0.50
2023-02-19T02:12:34.638Z,0.48
2023-02-19T02:15:19.224Z,0.45
2023-02-19T02:18:20.569Z,0.40
2023-02-19T02:21:16.873Z,0.38
2023-02-19T02:24:17.611Z,0.37
2023-02-19T02:27:32.050Z,0.35
2023-02-19T02:30:31.135Z,0.33
2023-02-19T02:33:26.606Z,0.26
2023-02-19T02:36:19.418Z,0.26
2023-02-19T02:39:08.557Z,0.26
2023-02-19T02:42:16.629Z,0.20
2023-02-19T02:45:35.331Z,0.16
2023-02-19T02:48:31.104Z,0.17
2023-02-19T02:51:15.903Z,0.11
2023-02-19T02:54:41.746Z,0.16
2023-02-19T02:57:29.798Z,0.13
2023-02-19T03:01:21.011Z,0.18
2023-02-19T03:04:12.721Z,0.13
2023-02-19T03:07:03.067Z,0.15
2023-02-19T03:09:49.714Z,0.09
2023-02-19T03:12:56.949Z,0.11
2023-02-19T03:16:05.804Z,0.07
2023-02-19T03:19:12.645Z,0.05
2023-02-19T03:22:22.005Z,0.03
2023-02-19T03:25:30.190Z,0.02
2023-02-19T03:28:40.588Z,0.06
2023-02-19T03:31:29.195Z,0.10
2023-02-19T03:34:26.039Z,0.13
2023-02-19T03:37:35.504Z,0.14
2023-02-19T03:40:24.307Z,0.23
2023-02-19T03:43:43.233Z,0.33
2023-02-19T03:46:46.105Z,0.36
2023-02-19T03:49:55.424Z,0.42
2023-02-19T03:53:05.649Z,0.52
2023-02-19T03:56:13.491Z,0.59
2023-02-19T03:59:26.067Z,0.68
2023-02-19T04:02:23.132Z,0.71
2023-02-19T04:05:15.181Z,0.76
2023-02-19T04:08:08.538Z,0.79
2023-02-19T04:10:59.855Z,0.83
2023-02-19T04:13:58.327Z,0.85
2023-02-19T04:16:49.951Z,0.90
2023-02-19T04:19:39.790Z,0.92
2023-02-19T04:22:25.850Z,0.95
2023-02-19T04:25:10.586Z,0.97
2023-02-19T04:27:55.553Z,0.95
2023-02-19T04:30:40.394Z,0.96
2023-02-19T04:33:25.349Z,0.94
2023-02-19T04:36:11.213Z,0.94
2023-02-19T04:38:56.014Z,0.93
2023-02-19T04:41:41.094Z,0.90
2023-02-19T04:44:25.882Z,0.87
2023-02-19T04:47:10.539Z,0.88
2023-02-19T04:49:55.291Z,0.86
2023-02-19T04:52:40.076Z,0.87
2023-02-19T04:55:24.919Z,0.83
2023-02-19T04:58:09.579Z,0.81
2023-02-19T05:00:54.575Z,0.80
2023-02-19T05:03:39.979Z,0.82
2023-02-19T05:06:25.120Z,0.87
2023-02-19T05:09:10.112Z,0.90
2023-02-19T05:11:55.223Z,0.93
2023-02-19T05:14:40.363Z,0.96
2023-02-19T05:17:25.417Z,0.98
2023-02-19T05:20:10.537Z,1.00
2023-02-19T05:22:55.315Z,1.04
2023-02-19T05:25:39.647Z,1.03
2023-02-19T05:28:33.546Z,1.08
2023-02-19T05:31:19.356Z,1.05
2023-02-19T05:34:04.221Z,1.06
2023-02-19T05:36:48.756Z,1.04
2023-02-19T05:39:33.547Z,0.99
2023-02-19T05:42:18.319Z,0.98
2023-02-19T05:45:03.374Z,0.88
2023-02-19T05:47:47.666Z,0.79
2023-02-19T05:50:34.384Z,0.67
2023-02-19T05:53:29.966Z,0.59
2023-02-19T05:56:37.864Z,0.48
2023-02-19T05:59:24.727Z,0.47
2023-02-19T06:02:09.813Z,0.48
2023-02-19T06:04:54.820Z,0.52
2023-02-19T06:07:41.014Z,0.52
2023-02-19T06:10:27.601Z,0.55
2023-02-19T06:13:12.334Z,0.56
2023-02-19T06:15:57.486Z,0.62
2023-02-19T06:18:42.295Z,0.73
2023-02-19T06:21:27.102Z,0.80
2023-02-19T06:24:12.432Z,0.88
2023-02-19T06:26:57.932Z,0.95
2023-02-19T06:29:42.618Z,0.93
2023-02-19T06:32:27.712Z,1.05
2023-02-19T06:35:12.742Z,1.13
2023-02-19T06:37:57.745Z,1.12
2023-02-19T06:40:43.071Z,1.12
2023-02-19T06:43:27.659Z,1.12
2023-02-19T06:46:12.838Z,1.17
2023-02-19T06:48:57.885Z,1.19
2023-02-19T06:51:42.991Z,1.29
2023-02-19T06:54:27.980Z,1.27
2023-02-19T06:57:12.834Z,1.29
2023-02-19T06:59:57.299Z,1.33
2023-02-19T07:02:41.776Z,1.36
2023-02-19T07:05:26.777Z,1.40
2023-02-19T07:08:11.501Z,1.35
2023-02-19T07:10:58.113Z,1.45
2023-02-19T07:13:42.792Z,1.53
2023-02-19T07:16:27.878Z,1.51
2023-02-19T07:19:15.213Z,1.58
2023-02-19T07:22:00.176Z,1.59
2023-02-19T07:24:47.584Z,1.53
2023-02-19T07:27:32.762Z,1.52
2023-02-19T07:30:18.133Z,1.50
2023-02-19T07:33:02.571Z,1.60
2023-02-19T07:35:48.876Z,1.63
2023-02-19T07:38:34.019Z,1.69
2023-02-19T07:41:19.068Z,1.68
2023-02-19T07:44:05.528Z,1.80
2023-02-19T07:46:50.122Z,1.92
2023-02-19T07:49:35.048Z,1.93
2023-02-19T07:52:20.098Z,1.95
2023-02-19T07:55:05.238Z,2.01
2023-02-19T07:57:50.271Z,1.96
2023-02-19T08:00:35.055Z,2.07
2023-02-19T08:03:19.999Z,2.02
2023-02-19T08:06:05.408Z,2.17
2023-02-19T08:08:50.752Z,2.22
2023-02-19T08:11:54.252Z,2.16
2023-02-19T08:14:39.347Z,2.25
2023-02-19T08:17:24.075Z,2.28
2023-02-19T08:20:09.699Z,2.33
2023-02-19T08:22:54.522Z,2.37
2023-02-19T08:25:41.177Z,2.42
2023-02-19T08:28:26.200Z,2.59
2023-02-19T08:31:11.780Z,2.52
2023-02-19T08:33:57.022Z,2.45
2023-02-19T08:36:41.954Z,2.50
2023-02-19T08:39:26.828Z,2.54
2023-02-19T08:42:11.826Z,2.76
2023-02-19T08:44:56.545Z,2.77
2023-02-19T08:47:41.169Z,2.75
2023-02-19T08:50:26.717Z,2.78
2023-02-19T08:53:11.583Z,2.90
2023-02-19T08:55:56.705Z,3.02
2023-02-19T08:58:42.081Z,3.09
2023-02-19T09:01:26.831Z,2.77
2023-02-19T09:04:13.047Z,2.92
2023-02-19T09:06:58.377Z,2.83
2023-02-19T09:09:43.416Z,2.96
2023-02-19T09:12:27.997Z,3.01
2023-02-19T09:15:12.705Z,3.21
2023-02-19T09:17:57.626Z,3.07
2023-02-19T09:20:42.609Z,3.06
2023-02-19T09:23:28.156Z,2.95
2023-02-19T09:26:13.378Z,3.05
2023-02-19T09:28:58.171Z,3.23
2023-02-19T09:31:43.054Z,3.13
2023-02-19T09:34:28.816Z,3.10
2023-02-19T09:37:13.512Z,3.17
2023-02-19T09:39:58.407Z,3.12
2023-02-19T09:42:43.573Z,3.11
2023-02-19T09:45:28.884Z,3.00
2023-02-19T09:48:13.656Z,3.32
2023-02-19T09:51:01.033Z,3.24
2023-02-19T09:53:48.828Z,3.34
2023-02-19T09:56:34.411Z,3.44
2023-02-19T09:59:50.230Z,3.39
2023-02-19T10:02:35.300Z,3.24
2023-02-19T10:05:25.548Z,3.19
2023-02-19T10:08:17.911Z,3.37
2023-02-19T10:11:04.424Z,3.45
2023-02-19T10:14:01.776Z,3.50
2023-02-19T10:16:48.944Z,3.71
2023-02-19T10:19:35.619Z,4.01
2023-02-19T10:22:24.711Z,4.12
2023-02-19T10:25:16.024Z,3.74
2023-02-19T10:28:01.678Z,3.61
2023-02-19T10:30:53.667Z,3.78
2023-02-19T10:33:52.889Z,3.83
2023-02-19T10:36:42.113Z,3.78
2023-02-19T10:39:34.782Z,3.95
2023-02-19T10:42:22.014Z,4.25
2023-02-19T10:45:20.989Z,3.91
2023-02-19T10:48:18.012Z,4.24
2023-02-19T10:51:07.466Z,4.20
2023-02-19T10:54:03.613Z,4.13
2023-02-19T10:56:48.514Z,3.87
2023-02-19T10:59:33.460Z,3.75
2023-02-19T11:02:20.794Z,3.76
2023-02-19T11:05:15.911Z,3.77
2023-02-19T11:08:00.795Z,4.01
2023-02-19T11:10:48.498Z,4.21
2023-02-19T11:13:37.326Z,4.03
2023-02-19T11:16:24.419Z,4.16
2023-02-19T11:19:32.335Z,4.05
2023-02-19T11:22:46.259Z,4.28
2023-02-19T11:25:30.917Z,4.06
2023-02-19T11:28:15.936Z,4.05
2023-02-19T11:31:22.530Z,3.78
2023-02-19T11:34:13.696Z,3.83
2023-02-19T11:37:11.054Z,3.78
2023-02-19T11:39:55.649Z,3.80
2023-02-19T11:43:20.171Z,3.74
2023-02-19T11:46:25.080Z,4.02
2023-02-19T11:49:18.881Z,4.00
2023-02-19T11:52:22.897Z,4.13
2023-02-19T11:55:29.422Z,4.05
2023-02-19T11:58:26.292Z,4.13
2023-02-19T12:01:32.728Z,4.05
2023-02-19T12:04:43.126Z,4.18
2023-02-19T12:07:52.095Z,4.00
2023-02-19T12:10:49.294Z,4.03
2023-02-19T12:13:47.648Z,3.91
2023-02-19T12:17:07.722Z,4.15
2023-02-19T12:20:02.746Z,4.15
2023-02-19T12:23:23.407Z,4.47
2023-02-19T12:26:25.401Z,4.59
2023-02-19T12:29:54.061Z,4.71
2023-02-19T12:33:07.690Z,4.39
2023-02-19T12:36:08.024Z,4.39
2023-02-19T12:39:15.208Z,4.58
2023-02-19T12:42:19.623Z,4.56
2023-02-19T12:45:31.722Z,4.77
2023-02-19T12:48:35.301Z,5.03
2023-02-19T12:51:26.007Z,4.93
2023-02-19T12:54:18.106Z,4.83
2023-02-19T12:57:10.459Z,5.01
2023-02-19T13:00:04.651Z,5.09
2023-02-19T13:03:00.197Z,5.04
2023-02-19T13:05:58.822Z,4.76
2023-02-19T13:09:05.404Z,4.59
2023-02-19T13:11:58.595Z,4.76
2023-02-19T13:14:48.495Z,4.70
2023-02-19T13:17:45.628Z,4.72
2023-02-19T13:20:51.328Z,4.78
2023-02-19T13:23:59.311Z,4.78
2023-02-19T13:27:11.810Z,4.98
2023-02-19T13:30:24.391Z,4.92
2023-02-19T13:33:20.981Z,4.77
2023-02-19T13:36:12.065Z,4.61
2023-02-19T13:38:56.937Z,4.51
2023-02-19T13:41:54.214Z,4.43
2023-02-19T13:44:40.371Z,4.34
2023-02-19T13:47:54.376Z,4.23
2023-02-19T13:50:40.162Z,4.19
2023-02-19T13:53:40.631Z,4.24
2023-02-19T13:56:34.415Z,4.40
2023-02-19T13:59:38.053Z,4.25
2023-02-19T14:02:22.885Z,4.21
2023-02-19T14:05:11.631Z,4.11
2023-02-19T14:07:56.296Z,3.95
2023-02-19T14:10:57.926Z,4.06
2023-02-19T14:13:52.034Z,4.08
2023-02-19T14:16:39.562Z,4.11
2023-02-19T14:19:44.549Z,4.08
2023-02-19T14:22:48.158Z,4.11
2023-02-19T14:25:38.041Z,4.06
2023-02-19T14:28:33.033Z,3.98
2023-02-19T14:31:28.600Z,3.88
2023-02-19T14:34:22.407Z,3.82
2023-02-19T14:37:17.604Z,3.75
2023-02-19T14:40:03.600Z,3.72
2023-02-19T14:42:52.138Z,3.68
2023-02-19T14:45:42.520Z,3.65
2023-02-19T14:48:37.906Z,3.63
2023-02-19T14:51:30.928Z,3.57
2023-02-19T14:54:20.492Z,3.53
2023-02-19T14:57:30.741Z,3.50
2023-02-19T15:00:21.540Z,3.47
2023-02-19T15:03:23.464Z,3.40
2023-02-19T15:06:18.078Z,3.34
2023-02-19T15:09:06.883Z,3.25
2023-02-19T15:11:53.200Z,3.19
2023-02-19T15:14:39.684Z,3.20
2023-02-19T15:17:37.695Z,3.12
2023-02-19T15:20:25.123Z,3.09
2023-02-19T15:23:20.325Z,3.06
2023-02-19T15:26:05.024Z,3.01
2023-02-19T15:28:58.621Z,2.94
2023-02-19T15:31:46.803Z,2.94
2023-02-19T15:34:32.335Z,2.89
2023-02-19T15:37:17.069Z,2.87
2023-02-19T15:40:06.991Z,2.83
2023-02-19T15:42:51.982Z,2.80
2023-02-19T15:45:45.599Z,2.74
2023-02-19T15:48:39.943Z,2.71
2023-02-19T15:51:37.370Z,2.71
2023-02-19T15:54:32.828Z,2.67
2023-02-19T15:57:22.880Z,2.66
2023-02-19T16:00:18.618Z,2.67
2023-02-19T16:03:05.027Z,2.67
2023-02-19T16:06:11.133Z,2.67
2023-02-19T16:09:05.217Z,2.65
2023-02-19T16:11:53.031Z,2.68
2023-02-19T16:14:38.189Z,2.63
2023-02-19T16:17:27.281Z,2.60
2023-02-19T16:20:25.854Z,2.55
2023-02-19T16:23:17.216Z,2.51
2023-02-19T16:26:02.854Z,2.45
2023-02-19T16:28:52.611Z,2.42
2023-02-19T16:31:39.204Z,2.40
2023-02-19T16:34:46.412Z,2.31
2023-02-19T16:37:35.102Z,2.31
2023-02-19T16:40:20.149Z,2.22
2023-02-19T16:43:14.568Z,2.17
2023-02-19T16:46:01.289Z,2.12
2023-02-19T16:48:46.377Z,2.05
2023-02-19T16:51:31.129Z,2.00
2023-02-19T16:54:16.514Z,1.96
2023-02-19T16:57:01.503Z,1.93
2023-02-19T16:59:47.172Z,1.89
2023-02-19T17:02:33.566Z,1.84
2023-02-19T17:05:20.408Z,1.81
2023-02-19T17:08:29.066Z,1.76
2023-02-19T17:11:15.434Z,1.79
2023-02-19T17:14:00.457Z,1.71
2023-02-19T17:16:45.144Z,1.68
2023-02-19T17:19:31.147Z,1.65
2023-02-19T17:22:17.070Z,1.65
2023-02-19T17:25:01.711Z,1.62
2023-02-19T17:27:46.947Z,1.57
2023-02-19T17:30:32.678Z,1.55
2023-02-19T17:33:17.748Z,1.47
2023-02-19T17:36:03.286Z,1.55
2023-02-19T17:38:48.293Z,1.55
2023-02-19T17:41:33.035Z,1.50
2023-02-19T17:44:17.565Z,1.48
2023-02-19T17:47:02.451Z,1.52
2023-02-19T17:49:47.181Z,1.51
2023-02-19T17:52:32.577Z,1.51
2023-02-19T17:55:18.822Z,1.52
2023-02-19T17:58:03.465Z,1.47
2023-02-19T18:00:48.318Z,1.48
2023-02-19T18:03:32.765Z,1.42
2023-02-19T18:06:17.873Z,1.43
2023-02-19T18:09:03.176Z,1.37
2023-02-19T18:11:48.883Z,1.32
2023-02-19T18:14:33.723Z,1.33
2023-02-19T18:17:19.089Z,1.35
2023-02-19T18:20:05.142Z,1.41
2023-02-19T18:22:50.189Z,1.53
2023-02-19T18:25:35.131Z,1.58
2023-02-19T18:28:19.874Z,1.63
2023-02-19T18:31:04.956Z,1.57
2023-02-19T18:33:49.948Z,1.45
2023-02-19T18:36:34.881Z,1.34
2023-02-19T18:39:19.935Z,1.23
2023-02-19T18:42:05.039Z,1.06
2023-02-19T18:44:50.327Z,0.93
2023-02-19T18:47:35.306Z,0.82
2023-02-19T18:50:20.337Z,0.73
2023-02-19T18:53:05.119Z,0.64
2023-02-19T18:55:50.681Z,0.58
2023-02-19T18:58:35.234Z,0.52
2023-02-19T19:01:20.808Z,0.48
2023-02-19T19:04:06.119Z,0.43
2023-02-19T19:06:51.078Z,0.47
2023-02-19T19:09:36.164Z,0.42
2023-02-19T19:12:21.215Z,0.38
2023-02-19T19:15:06.123Z,0.39
2023-02-19T19:17:51.811Z,0.33
2023-02-19T19:20:36.651Z,0.33
2023-02-19T19:23:21.699Z,0.37
2023-02-19T19:26:07.214Z,0.35
2023-02-19T19:28:52.482Z,0.38
2023-02-19T19:31:37.252Z,0.32
2023-02-19T19:34:22.196Z,0.32
2023-02-19T19:37:07.034Z,0.35
2023-02-19T19:39:51.663Z,0.39
2023-02-19T19:42:36.614Z,0.37
2023-02-19T19:45:21.970Z,0.35
2023-02-19T19:48:06.449Z,0.43
2023-02-19T19:50:51.164Z,0.46
2023-02-19T19:53:36.333Z,0.41
2023-02-19T19:56:20.829Z,0.42
2023-02-19T19:59:05.744Z,0.40
2023-02-19T20:01:57.752Z,0.37
2023-02-19T20:04:43.109Z,0.31
2023-02-19T20:07:28.549Z,0.21
2023-02-19T20:10:13.865Z,0.18
2023-02-19T20:12:59.793Z,0.19
2023-02-19T20:15:44.833Z,0.15
2023-02-19T20:18:29.847Z,0.18
2023-02-19T20:21:15.142Z,0.15
2023-02-19T20:24:00.461Z,0.16
2023-02-19T20:26:45.293Z,0.16
2023-02-19T20:29:32.654Z,0.15
2023-02-19T20:32:20.849Z,0.12
2023-02-19T20:35:06.235Z,0.17
2023-02-19T20:37:51.211Z,0.24
2023-02-19T20:40:35.891Z,0.21
2023-02-19T20:43:20.272Z,0.24
2023-02-19T20:46:05.565Z,0.22
2023-02-19T20:48:51.935Z,0.17
2023-02-19T20:51:51.628Z,0.11
2023-02-19T20:54:37.708Z,0.13
2023-02-19T20:57:23.450Z,0.14
2023-02-19T21:00:09.154Z,0.10
2023-02-19T21:02:54.294Z,0.05
2023-02-19T21:05:39.841Z,0.08
2023-02-19T21:08:25.047Z,0.03
2023-02-19T21:11:10.046Z,-0.05
2023-02-19T21:13:58.357Z,-0.02
2023-02-19T21:16:43.713Z,-0.06
2023-02-19T21:19:28.609Z,-0.13
2023-02-19T21:22:13.729Z,-0.23
2023-02-19T21:24:58.276Z,-0.23
2023-02-19T21:27:43.277Z,-0.18
2023-02-19T21:30:28.130Z,0.09
2023-02-19T21:33:12.689Z,0.09
2023-02-19T21:35:57.951Z,0.02
2023-02-19T21:38:42.563Z,-0.01
2023-02-19T21:41:28.292Z,-0.10
2023-02-19T21:44:13.796Z,-0.17
2023-02-19T21:46:59.085Z,-0.24
2023-02-19T21:49:43.649Z,-0.26
2023-02-19T21:52:30.407Z,-0.34
2023-02-19T21:55:15.540Z,-0.35
2023-02-19T21:58:00.082Z,-0.40
2023-02-19T22:00:45.173Z,-0.44
2023-02-19T22:03:29.941Z,-0.42
2023-02-19T22:06:14.936Z,-0.48
2023-02-19T22:09:00.414Z,-0.54
2023-02-19T22:11:44.941Z,-0.59
2023-02-19T22:14:30.576Z,-0.61
2023-02-19T22:17:15.464Z,-0.58
2023-02-19T22:20:00.341Z,-0.54
2023-02-19T22:22:45.655Z,-0.50
2023-02-19T22:25:30.406Z,-0.57
2023-02-19T22:28:15.412Z,-0.58
2023-02-19T22:31:00.180Z,-0.61
2023-02-19T22:33:44.909Z,-0.67
2023-02-19T22:36:32.454Z,-0.75
2023-02-19T22:39:20.893Z,-0.78
2023-02-19T22:42:05.628Z,-0.77
2023-02-19T22:44:50.611Z,-0.74
2023-02-19T22:47:35.562Z,-0.77
2023-02-19T22:50:22.163Z,-0.77
2023-02-19T22:53:07.201Z,-0.81
2023-02-19T22:55:51.890Z,-0.82
2023-02-19T22:58:36.785Z,-0.82
2023-02-19T23:01:21.844Z,-0.84
2023-02-19T23:04:06.766Z,-0.82
2023-02-19T23:06:51.930Z,-0.85
2023-02-19T23:09:37.015Z,-0.93
2023-02-19T23:12:22.656Z,-0.99
2023-02-19T23:15:09.422Z,-0.93
2023-02-19T23:17:54.096Z,-0.92
2023-02-19T23:20:39.429Z,-0.89
2023-02-19T23:23:24.013Z,-0.97
2023-02-19T23:26:09.854Z,-0.97
2023-02-19T23:28:54.760Z,-0.98
2023-02-19T23:31:39.633Z,-0.97
2023-02-19T23:34:24.126Z,-0.96
2023-02-19T23:37:09.227Z,-0.90
2023-02-19T23:39:54.449Z,-0.94
2023-02-19T23:42:38.991Z,-1.04
2023-02-19T23:45:24.130Z,-1.08
2023-02-19T23:48:08.766Z,-1.16
2023-02-19T23:50:53.848Z,-1.20
2023-02-19T23:53:38.856Z,-1.19
2023-02-19T23:56:24.305Z,-1.15
2023-02-19T23:59:09.202Z,-1.16
